createdAt,value
2018-05-23T00:01:28.756Z,41.00
2018-05-23T00:03:55.392Z,41.03
2018-05-23T00:06:22.042Z,41.09
2018-05-23T00:08:48.693Z,41.09
2018-05-23T00:11:15.380Z,41.03
2018-05-23T00:13:42.018Z,41.04
2018-05-23T00:16:08.705Z,41.08
2018-05-23T00:18:35.376Z,41.12
2018-05-23T00:21:02.053Z,41.14
2018-05-23T00:23:28.668Z,41.14
2018-05-23T00:25:55.298Z,41.14
2018-05-23T00:28:21.991Z,41.19
2018-05-23T00:30:48.624Z,41.17
2018-05-23T00:33:15.305Z,41.21
2018-05-23T00:35:41.991Z,41.19
2018-05-23T00:38:08.626Z,41.21
2018-05-23T00:40:35.262Z,41.17
2018-05-23T00:43:01.904Z,41.19
2018-05-23T00:45:28.547Z,41.20
2018-05-23T00:47:55.237Z,41.21
2018-05-23T00:50:21.974Z,41.23
2018-05-23T00:52:48.525Z,41.30
2018-05-23T00:55:15.262Z,41.25
2018-05-23T00:57:41.908Z,41.18
2018-05-23T01:00:08.538Z,41.25
2018-05-23T01:02:35.187Z,41.27
2018-05-23T01:05:01.835Z,41.26
2018-05-23T01:07:28.475Z,41.32
2018-05-23T01:09:55.117Z,41.31
2018-05-23T01:12:21.797Z,41.36
2018-05-23T01:14:48.430Z,41.38
2018-05-23T01:17:15.110Z,41.41
2018-05-23T01:19:41.741Z,41.36
2018-05-23T01:22:08.434Z,41.42
2018-05-23T01:24:35.074Z,41.46
2018-05-23T01:27:01.946Z,41.44
2018-05-23T01:29:28.576Z,41.42
2018-05-23T01:31:55.213Z,41.48
2018-05-23T01:34:21.857Z,41.49
2018-05-23T01:36:48.496Z,41.49
2018-05-23T01:39:15.129Z,41.50
2018-05-23T01:41:41.770Z,41.55
2018-05-23T01:44:08.402Z,41.49
2018-05-23T01:46:35.090Z,41.54
2018-05-23T01:49:01.722Z,41.51
2018-05-23T01:51:28.396Z,41.45
2018-05-23T01:53:55.035Z,41.50
2018-05-23T01:56:21.669Z,41.54
2018-05-23T01:58:48.320Z,41.54
2018-05-23T02:01:14.959Z,41.57
2018-05-23T02:03:41.603Z,41.67
2018-05-23T02:06:08.287Z,41.62
2018-05-23T02:08:34.923Z,41.63
2018-05-23T02:11:01.595Z,41.69
2018-05-23T02:13:28.241Z,41.61
2018-05-23T02:15:54.935Z,41.68
2018-05-23T02:18:21.572Z,41.70
2018-05-23T02:20:48.209Z,41.74
2018-05-23T02:23:14.850Z,41.75
2018-05-23T02:25:41.487Z,41.78
2018-05-23T02:28:08.215Z,41.79
2018-05-23T02:30:34.904Z,41.73
2018-05-23T02:33:01.569Z,41.76
2018-05-23T02:35:28.267Z,41.80
2018-05-23T02:37:54.915Z,41.79
2018-05-23T02:40:21.593Z,41.79
2018-05-23T02:42:48.232Z,41.88
2018-05-23T02:45:14.923Z,41.84
2018-05-23T02:47:41.589Z,41.73
2018-05-23T02:50:08.232Z,41.83
2018-05-23T02:52:34.861Z,41.84
2018-05-23T02:55:01.503Z,41.87
2018-05-23T02:57:28.188Z,41.90
2018-05-23T02:59:54.822Z,41.88
2018-05-23T03:02:21.499Z,41.93
2018-05-23T03:04:48.142Z,41.90
2018-05-23T03:07:14.783Z,41.92
2018-05-23T03:09:41.446Z,41.95
2018-05-23T03:12:08.091Z,41.98
2018-05-23T03:14:34.731Z,41.69
2018-05-23T03:17:01.464Z,42.12
2018-05-23T03:19:28.062Z,42.31
2018-05-23T03:21:54.763Z,42.34
2018-05-23T03:24:21.397Z,42.46
2018-05-23T03:26:48.032Z,42.40
2018-05-23T03:29:14.736Z,42.49
2018-05-23T03:31:41.372Z,42.53
2018-05-23T03:34:11.390Z,42.71
2018-05-23T03:36:38.041Z,42.83
2018-05-23T03:39:04.726Z,42.89
2018-05-23T03:41:31.413Z,42.93
2018-05-23T03:43:58.044Z,43.00
2018-05-23T03:46:24.679Z,43.00
2018-05-23T03:48:51.322Z,42.88
2018-05-23T03:51:18.003Z,42.83
2018-05-23T03:53:44.786Z,43.00
2018-05-23T03:56:11.422Z,43.17
2018-05-23T03:58:38.063Z,43.42
2018-05-23T04:01:04.746Z,43.32
2018-05-23T04:03:31.365Z,43.24
2018-05-23T04:05:58.039Z,43.04
2018-05-23T04:08:24.690Z,43.17
2018-05-23T04:10:51.330Z,43.13
2018-05-23T04:13:18.018Z,43.00
2018-05-23T04:15:44.659Z,42.82
2018-05-23T04:18:11.329Z,42.79
2018-05-23T04:20:37.931Z,42.95
2018-05-23T04:23:04.591Z,42.81
2018-05-23T04:25:31.281Z,42.82
2018-05-23T04:27:57.914Z,42.64
2018-05-23T04:30:24.627Z,42.94
2018-05-23T04:32:51.274Z,43.08
2018-05-23T04:35:17.909Z,42.71
2018-05-23T04:37:44.547Z,42.58
2018-05-23T04:40:11.189Z,42.46
2018-05-23T04:42:37.828Z,42.17
2018-05-23T04:45:04.598Z,41.87
2018-05-23T04:47:31.202Z,41.89
2018-05-23T04:49:57.837Z,41.74
2018-05-23T04:52:24.488Z,41.70
2018-05-23T04:54:51.127Z,41.54
2018-05-23T04:57:17.754Z,41.33
2018-05-23T04:59:44.497Z,41.23
2018-05-23T05:02:11.130Z,41.26
2018-05-23T05:04:37.771Z,41.14
2018-05-23T05:07:04.450Z,41.03
2018-05-23T05:09:31.164Z,40.78
2018-05-23T05:11:57.803Z,41.22
2018-05-23T05:14:24.454Z,40.32
2018-05-23T05:16:51.159Z,39.78
2018-05-23T05:19:17.760Z,40.63
2018-05-23T05:21:44.408Z,41.39
2018-05-23T05:24:11.093Z,41.58
2018-05-23T05:26:37.698Z,42.04
2018-05-23T05:29:04.404Z,41.75
2018-05-23T05:31:31.105Z,41.58
2018-05-23T05:33:57.730Z,41.44
2018-05-23T05:36:24.369Z,40.89
2018-05-23T05:38:51.100Z,40.98
2018-05-23T05:41:17.663Z,41.16
2018-05-23T05:43:44.355Z,41.14
2018-05-23T05:46:11.001Z,40.67
2018-05-23T05:48:37.643Z,40.42
2018-05-23T05:51:04.340Z,40.50
2018-05-23T05:53:30.986Z,40.20
2018-05-23T05:56:00.890Z,39.34
2018-05-23T05:58:27.498Z,39.58
2018-05-23T06:00:54.134Z,39.33
2018-05-23T06:03:20.823Z,38.98
2018-05-23T06:05:47.471Z,38.76
2018-05-23T06:08:14.151Z,38.48
2018-05-23T06:10:40.785Z,38.19
2018-05-23T06:13:07.423Z,38.08
2018-05-23T06:15:34.079Z,37.54
2018-05-23T06:18:00.767Z,37.98
2018-05-23T06:20:27.399Z,37.53
2018-05-23T06:22:54.459Z,37.28
2018-05-23T06:25:21.058Z,37.42
2018-05-23T06:27:47.755Z,37.05
2018-05-23T06:30:14.479Z,37.31
2018-05-23T06:32:41.073Z,36.85
2018-05-23T06:35:07.738Z,36.94
2018-05-23T06:37:34.404Z,36.73
2018-05-23T06:40:01.042Z,36.84
2018-05-23T06:42:27.693Z,36.70
2018-05-23T06:44:54.402Z,36.45
2018-05-23T06:47:21.060Z,36.92
2018-05-23T06:49:47.753Z,36.59
2018-05-23T06:52:14.395Z,37.00
2018-05-23T06:54:41.059Z,36.53
2018-05-23T06:57:07.698Z,36.69
2018-05-23T06:59:34.344Z,36.74
2018-05-23T07:02:00.978Z,36.60
2018-05-23T07:04:27.674Z,36.77
2018-05-23T07:06:54.318Z,36.88
2018-05-23T07:09:21.033Z,36.73
2018-05-23T07:11:47.641Z,37.01
2018-05-23T07:14:14.366Z,36.83
2018-05-23T07:16:41.013Z,36.78
2018-05-23T07:19:07.705Z,37.11
2018-05-23T07:21:34.379Z,36.86
2018-05-23T07:24:01.081Z,37.05
2018-05-23T07:26:27.662Z,37.08
2018-05-23T07:28:54.342Z,37.07
2018-05-23T07:31:21.011Z,37.17
2018-05-23T07:33:47.740Z,37.39
2018-05-23T07:36:14.441Z,37.82
2018-05-23T07:38:41.126Z,38.08
2018-05-23T07:41:07.794Z,38.50
2018-05-23T07:43:34.437Z,38.54
2018-05-23T07:46:01.093Z,38.83
2018-05-23T07:48:27.721Z,38.74
2018-05-23T07:50:54.406Z,39.24
2018-05-23T07:53:21.069Z,39.27
2018-05-23T07:55:47.755Z,40.01
2018-05-23T07:58:14.779Z,40.36
2018-05-23T08:00:41.454Z,39.89
2018-05-23T08:03:08.104Z,39.72
2018-05-23T08:05:35.037Z,40.13
2018-05-23T08:08:01.715Z,39.91
2018-05-23T08:10:28.361Z,40.04
2018-05-23T08:12:55.055Z,40.08
2018-05-23T08:15:21.691Z,39.45
2018-05-23T08:17:48.398Z,39.62
2018-05-23T08:20:15.050Z,39.50
2018-05-23T08:22:43.922Z,39.38
2018-05-23T08:25:10.654Z,39.31
2018-05-23T08:27:37.291Z,39.29
2018-05-23T08:30:03.943Z,39.17
2018-05-23T08:32:30.584Z,38.30
2018-05-23T08:34:57.728Z,38.99
2018-05-23T08:37:24.368Z,38.35
2018-05-23T08:39:51.054Z,38.82
2018-05-23T08:42:17.686Z,38.67
2018-05-23T08:44:44.320Z,37.86
2018-05-23T08:47:11.035Z,38.01
2018-05-23T08:49:37.710Z,37.60
2018-05-23T08:52:04.353Z,37.74
2018-05-23T08:54:30.999Z,37.50
2018-05-23T08:56:57.633Z,37.96
2018-05-23T08:59:24.248Z,37.22
2018-05-23T09:01:50.937Z,37.65
2018-05-23T09:04:17.571Z,36.90
2018-05-23T09:06:44.205Z,37.43
2018-05-23T09:09:10.849Z,37.31
2018-05-23T09:11:37.534Z,37.03
2018-05-23T09:14:04.181Z,37.31
2018-05-23T09:16:30.860Z,37.16
2018-05-23T09:18:57.563Z,37.28
2018-05-23T09:21:24.210Z,37.07
2018-05-23T09:23:50.882Z,37.39
2018-05-23T09:26:17.564Z,37.32
2018-05-23T09:28:44.163Z,37.31
2018-05-23T09:31:10.819Z,36.82
2018-05-23T09:33:37.487Z,36.92
2018-05-23T09:36:04.165Z,36.87
2018-05-23T09:38:30.806Z,36.99
2018-05-23T09:40:57.494Z,36.60
2018-05-23T09:43:24.127Z,36.82
2018-05-23T09:45:50.774Z,36.68
2018-05-23T09:48:17.453Z,36.83
2018-05-23T09:50:44.255Z,36.25
2018-05-23T09:53:10.909Z,36.68
2018-05-23T09:55:37.551Z,36.45
2018-05-23T09:58:04.191Z,36.68
2018-05-23T10:00:30.842Z,36.15
2018-05-23T10:02:57.655Z,36.04
2018-05-23T10:05:24.241Z,36.09
2018-05-23T10:07:50.890Z,35.88
2018-05-23T10:10:17.588Z,36.30
2018-05-23T10:12:44.248Z,36.10
2018-05-23T10:15:10.906Z,36.25
2018-05-23T10:17:37.560Z,35.84
2018-05-23T10:20:04.251Z,36.32
2018-05-23T10:22:32.064Z,35.86
2018-05-23T10:24:58.715Z,36.13
2018-05-23T10:27:25.396Z,36.37
2018-05-23T10:29:52.035Z,36.16
2018-05-23T10:32:18.694Z,36.99
2018-05-23T10:34:45.384Z,37.10
2018-05-23T10:37:12.026Z,36.65
2018-05-23T10:39:38.673Z,36.04
2018-05-23T10:42:05.313Z,36.28
2018-05-23T10:44:32.039Z,36.01
2018-05-23T10:46:58.691Z,35.95
2018-05-23T10:49:25.366Z,36.23
2018-05-23T10:51:52.141Z,35.93
2018-05-23T10:54:18.789Z,36.47
2018-05-23T10:56:45.509Z,36.51
2018-05-23T10:59:12.126Z,36.76
2018-05-23T11:01:38.763Z,37.04
2018-05-23T11:04:05.411Z,37.11
2018-05-23T11:06:32.075Z,37.18
2018-05-23T11:08:58.849Z,37.56
2018-05-23T11:11:25.477Z,36.99
2018-05-23T11:13:52.114Z,37.51
2018-05-23T11:16:18.761Z,38.28
2018-05-23T11:18:45.475Z,38.73
2018-05-23T11:21:12.188Z,38.59
2018-05-23T11:23:38.819Z,39.73
2018-05-23T11:26:05.453Z,40.06
2018-05-23T11:28:32.163Z,40.23
2018-05-23T11:30:58.847Z,39.94
2018-05-23T11:33:25.453Z,39.89
2018-05-23T11:35:52.154Z,39.34
2018-05-23T11:38:18.792Z,39.61
2018-05-23T11:40:45.434Z,39.51
2018-05-23T11:43:12.118Z,39.88
2018-05-23T11:45:39.063Z,39.59
2018-05-23T11:48:06.128Z,40.06
2018-05-23T11:50:32.751Z,39.84
2018-05-23T11:52:59.421Z,39.52
2018-05-23T11:55:26.261Z,38.78
2018-05-23T11:57:52.940Z,40.76
2018-05-23T12:00:19.628Z,41.27
2018-05-23T12:02:46.310Z,41.09
2018-05-23T12:05:13.001Z,41.86
2018-05-23T12:07:40.045Z,42.17
2018-05-23T12:10:06.683Z,42.01
2018-05-23T12:12:33.328Z,41.75
2018-05-23T12:15:00.077Z,41.88
2018-05-23T12:17:26.727Z,41.51
2018-05-23T12:19:53.482Z,41.50
2018-05-23T12:22:20.237Z,41.33
2018-05-23T12:24:46.850Z,41.54
2018-05-23T12:27:13.490Z,41.11
2018-05-23T12:29:40.134Z,40.52
2018-05-23T12:32:06.791Z,41.12
2018-05-23T12:34:33.436Z,40.71
2018-05-23T12:37:00.077Z,41.06
2018-05-23T12:39:26.793Z,40.55
2018-05-23T12:41:53.487Z,40.37
2018-05-23T12:44:22.770Z,40.31
2018-05-23T12:46:52.028Z,40.49
2018-05-23T12:49:18.681Z,40.27
2018-05-23T12:51:45.381Z,40.09
2018-05-23T12:54:12.037Z,39.82
2018-05-23T12:56:38.732Z,40.01
2018-05-23T12:59:05.431Z,40.12
2018-05-23T13:01:32.116Z,39.12
2018-05-23T13:04:01.256Z,39.92
2018-05-23T13:06:27.894Z,39.65
2018-05-23T13:08:54.546Z,40.23
2018-05-23T13:11:21.191Z,39.67
2018-05-23T13:13:47.839Z,39.91
2018-05-23T13:16:14.490Z,39.99
2018-05-23T13:18:41.212Z,39.39
2018-05-23T13:21:10.259Z,39.58
2018-05-23T13:23:36.899Z,39.63
2018-05-23T13:26:03.575Z,39.21
2018-05-23T13:28:30.236Z,39.26
2018-05-23T13:30:56.931Z,39.39
2018-05-23T13:33:23.542Z,38.88
2018-05-23T13:35:50.226Z,39.02
2018-05-23T13:38:16.884Z,39.14
2018-05-23T13:40:43.520Z,39.09
2018-05-23T13:43:10.215Z,38.96
2018-05-23T13:45:36.904Z,39.21
2018-05-23T13:48:03.528Z,39.01
2018-05-23T13:50:30.201Z,38.62
2018-05-23T13:52:56.847Z,39.09
2018-05-23T13:55:23.487Z,38.93
2018-05-23T13:57:50.233Z,38.56
2018-05-23T14:00:16.965Z,38.49
2018-05-23T14:02:43.682Z,38.51
2018-05-23T14:05:10.371Z,38.50
2018-05-23T14:07:36.974Z,38.95
2018-05-23T14:10:03.634Z,38.92
2018-05-23T14:12:30.317Z,38.82
2018-05-23T14:14:56.969Z,39.04
2018-05-23T14:17:23.644Z,38.85
2018-05-23T14:19:50.283Z,39.14
2018-05-23T14:22:16.953Z,39.42
2018-05-23T14:24:43.580Z,39.35
2018-05-23T14:27:10.273Z,39.04
2018-05-23T14:29:36.921Z,39.37
2018-05-23T14:32:03.641Z,39.49
2018-05-23T14:34:30.247Z,39.42
2018-05-23T14:36:56.869Z,39.01
2018-05-23T14:39:23.516Z,38.44
2018-05-23T14:41:50.166Z,38.70
2018-05-23T14:44:16.806Z,39.96
2018-05-23T14:46:43.460Z,40.01
2018-05-23T14:49:10.154Z,40.05
2018-05-23T14:51:36.881Z,40.32
2018-05-23T14:54:03.567Z,40.46
2018-05-23T14:56:30.250Z,40.57
2018-05-23T14:58:56.895Z,40.59
2018-05-23T15:01:23.510Z,40.26
2018-05-23T15:03:50.150Z,40.30
2018-05-23T15:06:16.782Z,39.46
2018-05-23T15:08:43.462Z,39.42
2018-05-23T15:11:10.100Z,39.62
2018-05-23T15:13:36.733Z,40.49
2018-05-23T15:16:03.414Z,41.68
2018-05-23T15:18:30.109Z,41.52
2018-05-23T15:20:56.744Z,41.70
2018-05-23T15:23:23.393Z,41.11
2018-05-23T15:25:50.069Z,40.63
2018-05-23T15:28:16.704Z,40.19
2018-05-23T15:30:43.348Z,40.04
2018-05-23T15:33:10.049Z,39.99
2018-05-23T15:35:36.682Z,39.77
2018-05-23T15:38:03.363Z,39.70
2018-05-23T15:40:30.004Z,39.50
2018-05-23T15:42:56.698Z,39.06
2018-05-23T15:45:23.340Z,38.76
2018-05-23T15:47:50.008Z,39.67
2018-05-23T15:50:16.643Z,40.61
2018-05-23T15:52:43.289Z,40.54
2018-05-23T15:55:09.921Z,40.04
2018-05-23T15:57:36.602Z,39.50
2018-05-23T16:00:03.237Z,39.27
2018-05-23T16:02:29.874Z,38.94
2018-05-23T16:04:56.579Z,38.99
2018-05-23T16:07:23.222Z,38.67
2018-05-23T16:09:49.861Z,38.64
2018-05-23T16:12:16.516Z,38.53
2018-05-23T16:14:43.232Z,38.45
2018-05-23T16:17:09.839Z,38.35
2018-05-23T16:19:36.515Z,38.42
2018-05-23T16:22:03.135Z,38.34
2018-05-23T16:24:31.203Z,38.27
2018-05-23T16:26:56.499Z,38.09
2018-05-23T16:29:23.109Z,38.02
2018-05-23T16:31:49.742Z,38.10
2018-05-23T16:34:18.447Z,37.85
2018-05-23T16:36:43.016Z,37.80
2018-05-23T16:39:09.654Z,37.80
2018-05-23T16:41:36.330Z,37.81
2018-05-23T16:44:02.971Z,37.68
2018-05-23T16:46:29.651Z,37.59
2018-05-23T16:48:56.287Z,37.71
2018-05-23T16:51:22.929Z,37.59
2018-05-23T16:53:49.601Z,37.58
2018-05-23T16:56:16.225Z,37.52
2018-05-23T16:58:42.876Z,37.48
2018-05-23T17:01:09.529Z,37.53
2018-05-23T17:03:36.165Z,37.47
2018-05-23T17:06:02.807Z,37.50
2018-05-23T17:08:29.442Z,37.42
2018-05-23T17:10:56.165Z,37.39
2018-05-23T17:13:22.815Z,37.42
2018-05-23T17:15:49.501Z,37.35
2018-05-23T17:18:16.138Z,37.38
2018-05-23T17:20:42.805Z,37.29
2018-05-23T17:23:09.436Z,37.23
2018-05-23T17:25:36.072Z,37.28
2018-05-23T17:28:02.713Z,37.24
2018-05-23T17:30:29.375Z,37.10
2018-05-23T17:32:56.012Z,37.07
2018-05-23T17:35:22.658Z,37.13
2018-05-23T17:37:49.345Z,37.02
2018-05-23T17:40:16.055Z,36.93
2018-05-23T17:42:42.629Z,36.96
2018-05-23T17:45:09.337Z,36.94
2018-05-23T17:47:36.068Z,36.92
2018-05-23T17:50:02.683Z,36.82
2018-05-23T17:52:29.325Z,36.87
2018-05-23T17:54:55.978Z,36.78
2018-05-23T17:57:22.622Z,36.80
2018-05-23T17:59:49.255Z,36.82
2018-05-23T18:02:15.934Z,36.83
2018-05-23T18:04:42.613Z,36.83
2018-05-23T18:07:09.278Z,36.77
2018-05-23T18:09:35.959Z,36.85
2018-05-23T18:12:02.641Z,36.83
2018-05-23T18:14:29.238Z,36.93
2018-05-23T18:16:55.875Z,36.79
2018-05-23T18:19:22.517Z,36.91
2018-05-23T18:21:49.147Z,36.90
2018-05-23T18:24:15.823Z,36.84
2018-05-23T18:26:42.430Z,37.01
2018-05-23T18:29:09.063Z,37.14
2018-05-23T18:31:35.713Z,37.17
2018-05-23T18:34:02.346Z,37.19
2018-05-23T18:36:29.099Z,37.16
2018-05-23T18:38:55.736Z,37.31
2018-05-23T18:41:22.370Z,37.31
2018-05-23T18:43:49.025Z,37.33
2018-05-23T18:46:15.659Z,37.33
2018-05-23T18:48:42.303Z,37.36
2018-05-23T18:51:08.948Z,37.38
2018-05-23T18:53:35.579Z,37.42
2018-05-23T18:56:02.231Z,37.46
2018-05-23T18:58:28.898Z,37.48
2018-05-23T19:00:55.527Z,37.54
2018-05-23T19:03:22.163Z,37.60
2018-05-23T19:05:48.802Z,37.57
2018-05-23T19:08:15.457Z,37.64
2018-05-23T19:10:42.077Z,37.65
2018-05-23T19:13:08.714Z,37.69
2018-05-23T19:15:35.394Z,37.70
2018-05-23T19:18:02.030Z,37.75
2018-05-23T19:20:28.683Z,37.74
2018-05-23T19:22:55.319Z,37.80
2018-05-23T19:25:22.008Z,37.79
2018-05-23T19:27:48.696Z,37.88
2018-05-23T19:30:15.336Z,37.91
2018-05-23T19:32:42.062Z,37.90
2018-05-23T19:35:08.742Z,37.95
2018-05-23T19:37:35.375Z,37.99
2018-05-23T19:40:02.021Z,38.08
2018-05-23T19:42:28.660Z,38.02
2018-05-23T19:44:55.344Z,38.12
2018-05-23T19:47:22.094Z,38.11
2018-05-23T19:49:48.667Z,38.20
2018-05-23T19:52:15.304Z,38.20
2018-05-23T19:54:41.989Z,38.22
2018-05-23T19:57:08.629Z,38.27
2018-05-23T19:59:35.320Z,38.34
2018-05-23T20:02:01.967Z,38.41
2018-05-23T20:04:28.591Z,38.40
2018-05-23T20:06:55.245Z,38.41
2018-05-23T20:09:21.886Z,38.43
2018-05-23T20:11:48.574Z,38.51
2018-05-23T20:14:15.338Z,38.55
2018-05-23T20:16:41.851Z,38.52
2018-05-23T20:19:08.499Z,38.62
2018-05-23T20:21:35.135Z,38.69
2018-05-23T20:24:01.824Z,38.64
2018-05-23T20:26:28.462Z,38.67
2018-05-23T20:28:55.189Z,38.74
2018-05-23T20:31:21.916Z,38.73
2018-05-23T20:33:48.560Z,38.80
2018-05-23T20:36:15.232Z,38.80
2018-05-23T20:38:41.889Z,38.86
2018-05-23T20:41:08.531Z,38.92
2018-05-23T20:43:35.213Z,38.94
2018-05-23T20:46:01.843Z,38.96
2018-05-23T20:48:28.511Z,38.99
2018-05-23T20:50:55.151Z,38.96
2018-05-23T20:53:21.852Z,39.03
2018-05-23T20:55:48.519Z,39.06
2018-05-23T20:58:15.157Z,39.09
2018-05-23T21:00:41.880Z,39.01
2018-05-23T21:03:08.566Z,39.08
2018-05-23T21:05:35.213Z,39.16
2018-05-23T21:08:01.882Z,39.17
2018-05-23T21:10:28.529Z,39.22
2018-05-23T21:12:55.208Z,39.21
2018-05-23T21:15:21.925Z,39.25
2018-05-23T21:17:48.562Z,39.21
2018-05-23T21:20:15.240Z,39.22
2018-05-23T21:22:41.880Z,39.25
2018-05-23T21:25:08.597Z,39.25
2018-05-23T21:27:35.230Z,39.28
2018-05-23T21:30:01.913Z,39.35
2018-05-23T21:32:28.546Z,39.30
2018-05-23T21:34:55.307Z,39.33
2018-05-23T21:37:21.989Z,39.35
2018-05-23T21:39:48.635Z,39.37
2018-05-23T21:42:15.272Z,39.37
2018-05-23T21:44:41.913Z,39.37
2018-05-23T21:47:08.550Z,39.36
2018-05-23T21:49:36.358Z,39.41
2018-05-23T21:52:02.995Z,39.38
2018-05-23T21:54:29.677Z,39.48
2018-05-23T21:56:56.308Z,39.49
2018-05-23T21:59:23.028Z,39.47
2018-05-23T22:01:49.706Z,39.45
2018-05-23T22:04:16.304Z,39.50
2018-05-23T22:06:42.985Z,39.52
2018-05-23T22:09:09.616Z,39.52
2018-05-23T22:11:36.243Z,39.45
2018-05-23T22:14:02.894Z,39.50
2018-05-23T22:16:29.572Z,39.49
2018-05-23T22:18:56.205Z,39.50
2018-05-23T22:21:22.906Z,39.55
2018-05-23T22:23:49.534Z,39.53
2018-05-23T22:26:16.170Z,39.54
2018-05-23T22:28:42.812Z,39.55
2018-05-23T22:31:09.485Z,39.61
2018-05-23T22:33:36.119Z,39.64
2018-05-23T22:36:02.838Z,39.58
2018-05-23T22:38:29.442Z,39.58
2018-05-23T22:40:56.159Z,39.60
2018-05-23T22:43:22.807Z,39.65
2018-05-23T22:45:49.474Z,39.68
2018-05-23T22:48:16.157Z,39.61
2018-05-23T22:50:42.829Z,39.62
2018-05-23T22:53:09.462Z,39.66
2018-05-23T22:55:36.108Z,39.66
2018-05-23T22:58:02.741Z,39.65
2018-05-23T23:00:29.381Z,39.66
2018-05-23T23:02:56.131Z,39.69
2018-05-23T23:05:22.838Z,39.70
2018-05-23T23:07:49.546Z,39.73
2018-05-23T23:10:16.202Z,39.82
2018-05-23T23:12:42.878Z,39.81
2018-05-23T23:15:09.516Z,39.85
2018-05-23T23:17:36.153Z,39.74
2018-05-23T23:20:02.816Z,39.84
2018-05-23T23:22:29.507Z,39.84
2018-05-23T23:24:56.187Z,39.88
2018-05-23T23:27:22.836Z,39.99
2018-05-23T23:29:49.491Z,39.96
2018-05-23T23:32:16.170Z,40.04
2018-05-23T23:34:42.849Z,40.03
2018-05-23T23:37:09.492Z,40.08
2018-05-23T23:39:36.133Z,40.09
2018-05-23T23:42:02.820Z,40.12
2018-05-23T23:44:29.460Z,40.25
2018-05-23T23:46:56.099Z,40.27
2018-05-23T23:49:22.738Z,40.29
2018-05-23T23:51:49.442Z,40.25
2018-05-23T23:54:16.082Z,40.26
2018-05-23T23:56:42.729Z,40.34
2018-05-23T23:59:09.395Z,40.37
